sensor_id;sensor_type;location;lat;lon;timestamp;P1;durP1;ratioP1;P2;durP2;ratioP2
49860;SDS011;35761;48.826;9.238;2022-07-29T00:00:44;5.25;;;3.03;;
49860;SDS011;35761;48.826;9.238;2022-07-29T00:03:12;9.20;;;3.65;;
49860;SDS011;35761;48.826;9.238;2022-07-29T00:05:43;8.43;;;3.28;;
49860;SDS011;35761;48.826;9.238;2022-07-29T00:08:11;5.97;;;3.40;;
49860;SDS011;35761;48.826;9.238;2022-07-29T00:10:42;7.13;;;3.13;;
49860;SDS011;35761;48.826;9.238;2022-07-29T00:13:10;10.77;;;3.40;;
49860;SDS011;35761;48.826;9.238;2022-07-29T00:15:39;5.85;;;3.60;;
49860;SDS011;35761;48.826;9.238;2022-07-29T00:18:07;6.45;;;3.10;;
49860;SDS011;35761;48.826;9.238;2022-07-29T00:20:36;13.38;;;3.28;;
49860;SDS011;35761;48.826;9.238;2022-07-29T00:23:06;5.55;;;3.45;;
49860;SDS011;35761;48.826;9.238;2022-07-29T00:25:39;7.60;;;3.47;;
49860;SDS011;35761;48.826;9.238;2022-07-29T00:28:07;7.03;;;2.97;;
49860;SDS011;35761;48.826;9.238;2022-07-29T00:30:55;4.78;;;3.30;;
49860;SDS011;35761;48.826;9.238;2022-07-29T00:33:24;7.30;;;3.25;;
49860;SDS011;35761;48.826;9.238;2022-07-29T00:35:52;9.68;;;3.30;;
49860;SDS011;35761;48.826;9.238;2022-07-29T00:38:21;10.00;;;3.53;;
49860;SDS011;35761;48.826;9.238;2022-07-29T00:40:50;6.45;;;3.50;;
49860;SDS011;35761;48.826;9.238;2022-07-29T00:43:19;9.00;;;3.55;;
49860;SDS011;35761;48.826;9.238;2022-07-29T00:45:47;5.05;;;3.17;;
49860;SDS011;35761;48.826;9.238;2022-07-29T00:48:16;8.43;;;4.22;;
49860;SDS011;35761;48.826;9.238;2022-07-29T00:50:44;6.95;;;3.85;;
49860;SDS011;35761;48.826;9.238;2022-07-29T00:53:13;9.25;;;4.53;;
49860;SDS011;35761;48.826;9.238;2022-07-29T00:55:43;6.43;;;4.03;;
49860;SDS011;35761;48.826;9.238;2022-07-29T00:58:11;7.72;;;4.30;;
49860;SDS011;35761;48.826;9.238;2022-07-29T01:00:41;7.10;;;4.32;;
49860;SDS011;35761;48.826;9.238;2022-07-29T01:03:11;7.13;;;3.95;;
49860;SDS011;35761;48.826;9.238;2022-07-29T01:05:40;8.32;;;3.92;;
49860;SDS011;35761;48.826;9.238;2022-07-29T01:08:16;11.88;;;4.18;;
49860;SDS011;35761;48.826;9.238;2022-07-29T01:10:47;7.63;;;4.45;;
49860;SDS011;35761;48.826;9.238;2022-07-29T01:13:16;8.13;;;4.43;;
49860;SDS011;35761;48.826;9.238;2022-07-29T01:15:47;7.57;;;3.92;;
49860;SDS011;35761;48.826;9.238;2022-07-29T01:18:24;6.10;;;4.00;;
49860;SDS011;35761;48.826;9.238;2022-07-29T01:21:13;5.72;;;3.85;;
49860;SDS011;35761;48.826;9.238;2022-07-29T01:24:09;7.25;;;3.75;;
49860;SDS011;35761;48.826;9.238;2022-07-29T01:26:58;6.90;;;4.13;;
49860;SDS011;35761;48.826;9.238;2022-07-29T01:29:35;6.25;;;3.67;;
49860;SDS011;35761;48.826;9.238;2022-07-29T01:32:12;9.23;;;4.00;;
49860;SDS011;35761;48.826;9.238;2022-07-29T01:34:55;6.38;;;3.55;;
49860;SDS011;35761;48.826;9.238;2022-07-29T01:37:32;6.22;;;3.15;;
49860;SDS011;35761;48.826;9.238;2022-07-29T01:40:07;5.45;;;3.53;;
49860;SDS011;35761;48.826;9.238;2022-07-29T01:42:43;10.52;;;3.83;;
49860;SDS011;35761;48.826;9.238;2022-07-29T01:45:19;13.60;;;4.40;;
49860;SDS011;35761;48.826;9.238;2022-07-29T01:47:52;7.78;;;3.75;;
49860;SDS011;35761;48.826;9.238;2022-07-29T01:50:29;8.70;;;4.28;;
49860;SDS011;35761;48.826;9.238;2022-07-29T01:53:04;6.47;;;3.67;;
49860;SDS011;35761;48.826;9.238;2022-07-29T01:55:36;6.65;;;4.43;;
49860;SDS011;35761;48.826;9.238;2022-07-29T01:58:08;6.60;;;3.72;;
49860;SDS011;35761;48.826;9.238;2022-07-29T02:00:40;8.35;;;3.92;;
49860;SDS011;35761;48.826;9.238;2022-07-29T02:03:11;9.10;;;3.83;;
49860;SDS011;35761;48.826;9.238;2022-07-29T02:05:42;6.60;;;4.22;;
49860;SDS011;35761;48.826;9.238;2022-07-29T02:08:13;7.53;;;3.75;;
49860;SDS011;35761;48.826;9.238;2022-07-29T02:10:46;6.72;;;4.05;;
49860;SDS011;35761;48.826;9.238;2022-07-29T02:13:16;9.32;;;4.18;;
49860;SDS011;35761;48.826;9.238;2022-07-29T02:15:47;8.30;;;4.40;;
49860;SDS011;35761;48.826;9.238;2022-07-29T02:18:18;10.98;;;4.03;;
49860;SDS011;35761;48.826;9.238;2022-07-29T02:20:52;4.95;;;3.90;;
49860;SDS011;35761;48.826;9.238;2022-07-29T02:23:23;6.25;;;3.70;;
49860;SDS011;35761;48.826;9.238;2022-07-29T02:25:55;8.45;;;4.03;;
49860;SDS011;35761;48.826;9.238;2022-07-29T02:28:25;9.90;;;3.80;;
49860;SDS011;35761;48.826;9.238;2022-07-29T02:30:59;7.38;;;3.45;;
49860;SDS011;35761;48.826;9.238;2022-07-29T02:33:30;7.47;;;3.80;;
49860;SDS011;35761;48.826;9.238;2022-07-29T02:35:59;5.85;;;3.25;;
49860;SDS011;35761;48.826;9.238;2022-07-29T02:38:30;9.30;;;3.67;;
49860;SDS011;35761;48.826;9.238;2022-07-29T02:41:26;5.72;;;3.58;;
49860;SDS011;35761;48.826;9.238;2022-07-29T02:44:02;5.82;;;3.22;;
49860;SDS011;35761;48.826;9.238;2022-07-29T02:46:40;9.15;;;3.80;;
49860;SDS011;35761;48.826;9.238;2022-07-29T02:49:15;6.95;;;3.88;;
49860;SDS011;35761;48.826;9.238;2022-07-29T02:51:52;6.25;;;3.63;;
49860;SDS011;35761;48.826;9.238;2022-07-29T02:54:26;6.30;;;3.55;;
49860;SDS011;35761;48.826;9.238;2022-07-29T02:57:06;7.20;;;3.42;;
49860;SDS011;35761;48.826;9.238;2022-07-29T02:59:43;6.60;;;3.83;;
49860;SDS011;35761;48.826;9.238;2022-07-29T03:02:17;7.90;;;4.65;;
49860;SDS011;35761;48.826;9.238;2022-07-29T03:04:46;9.23;;;3.47;;
49860;SDS011;35761;48.826;9.238;2022-07-29T03:07:17;7.07;;;4.30;;
49860;SDS011;35761;48.826;9.238;2022-07-29T03:09:48;6.10;;;4.00;;
49860;SDS011;35761;48.826;9.238;2022-07-29T03:12:17;7.57;;;4.05;;
49860;SDS011;35761;48.826;9.238;2022-07-29T03:14:46;8.63;;;4.18;;
49860;SDS011;35761;48.826;9.238;2022-07-29T03:17:17;7.57;;;3.88;;
49860;SDS011;35761;48.826;9.238;2022-07-29T03:19:46;8.57;;;3.90;;
49860;SDS011;35761;48.826;9.238;2022-07-29T03:22:15;6.32;;;3.75;;
49860;SDS011;35761;48.826;9.238;2022-07-29T03:24:45;7.65;;;4.13;;
49860;SDS011;35761;48.826;9.238;2022-07-29T03:27:13;8.30;;;3.80;;
49860;SDS011;35761;48.826;9.238;2022-07-29T03:29:42;5.97;;;3.95;;
49860;SDS011;35761;48.826;9.238;2022-07-29T03:32:17;5.30;;;3.95;;
49860;SDS011;35761;48.826;9.238;2022-07-29T03:34:50;10.85;;;4.35;;
49860;SDS011;35761;48.826;9.238;2022-07-29T03:37:19;8.18;;;4.40;;
49860;SDS011;35761;48.826;9.238;2022-07-29T03:39:48;9.10;;;4.53;;
49860;SDS011;35761;48.826;9.238;2022-07-29T03:42:19;8.30;;;4.28;;
49860;SDS011;35761;48.826;9.238;2022-07-29T03:44:56;13.55;;;5.25;;
49860;SDS011;35761;48.826;9.238;2022-07-29T03:47:27;6.90;;;4.20;;
49860;SDS011;35761;48.826;9.238;2022-07-29T03:50:16;9.30;;;4.07;;
49860;SDS011;35761;48.826;9.238;2022-07-29T03:52:47;7.22;;;4.13;;
49860;SDS011;35761;48.826;9.238;2022-07-29T03:55:17;10.75;;;4.68;;
49860;SDS011;35761;48.826;9.238;2022-07-29T03:57:45;7.45;;;4.40;;
49860;SDS011;35761;48.826;9.238;2022-07-29T04:00:16;6.68;;;4.30;;
49860;SDS011;35761;48.826;9.238;2022-07-29T04:02:47;6.00;;;3.70;;
49860;SDS011;35761;48.826;9.238;2022-07-29T04:05:15;6.40;;;4.18;;
49860;SDS011;35761;48.826;9.238;2022-07-29T04:07:45;8.95;;;4.22;;
49860;SDS011;35761;48.826;9.238;2022-07-29T04:10:15;6.20;;;3.97;;
49860;SDS011;35761;48.826;9.238;2022-07-29T04:12:57;6.68;;;4.30;;
49860;SDS011;35761;48.826;9.238;2022-07-29T04:15:26;10.93;;;4.30;;
49860;SDS011;35761;48.826;9.238;2022-07-29T04:17:58;6.25;;;4.00;;
49860;SDS011;35761;48.826;9.238;2022-07-29T04:20:27;5.90;;;4.10;;
49860;SDS011;35761;48.826;9.238;2022-07-29T04:22:55;5.53;;;3.95;;
49860;SDS011;35761;48.826;9.238;2022-07-29T04:25:24;9.82;;;3.92;;
49860;SDS011;35761;48.826;9.238;2022-07-29T04:27:52;8.90;;;4.63;;
49860;SDS011;35761;48.826;9.238;2022-07-29T04:30:30;7.85;;;4.10;;
49860;SDS011;35761;48.826;9.238;2022-07-29T04:33:01;6.88;;;3.92;;
49860;SDS011;35761;48.826;9.238;2022-07-29T04:35:33;12.60;;;4.35;;
49860;SDS011;35761;48.826;9.238;2022-07-29T04:38:15;8.65;;;4.35;;
49860;SDS011;35761;48.826;9.238;2022-07-29T04:40:43;5.88;;;4.35;;
49860;SDS011;35761;48.826;9.238;2022-07-29T04:43:15;9.57;;;4.00;;
49860;SDS011;35761;48.826;9.238;2022-07-29T04:45:48;8.13;;;4.80;;
49860;SDS011;35761;48.826;9.238;2022-07-29T04:48:19;9.15;;;3.88;;
49860;SDS011;35761;48.826;9.238;2022-07-29T04:50:54;7.45;;;3.55;;
49860;SDS011;35761;48.826;9.238;2022-07-29T04:53:24;6.55;;;4.03;;
49860;SDS011;35761;48.826;9.238;2022-07-29T04:55:53;11.52;;;3.92;;
49860;SDS011;35761;48.826;9.238;2022-07-29T04:58:21;12.30;;;4.20;;
49860;SDS011;35761;48.826;9.238;2022-07-29T05:00:50;7.55;;;4.38;;
49860;SDS011;35761;48.826;9.238;2022-07-29T05:03:20;12.30;;;5.88;;
49860;SDS011;35761;48.826;9.238;2022-07-29T05:05:49;8.95;;;4.57;;
49860;SDS011;35761;48.826;9.238;2022-07-29T05:08:17;13.00;;;4.63;;
49860;SDS011;35761;48.826;9.238;2022-07-29T05:10:46;8.43;;;4.63;;
49860;SDS011;35761;48.826;9.238;2022-07-29T05:13:15;10.93;;;4.80;;
49860;SDS011;35761;48.826;9.238;2022-07-29T05:15:43;11.00;;;4.47;;
49860;SDS011;35761;48.826;9.238;2022-07-29T05:18:12;8.43;;;4.32;;
49860;SDS011;35761;48.826;9.238;2022-07-29T05:20:42;12.48;;;3.67;;
49860;SDS011;35761;48.826;9.238;2022-07-29T05:23:10;7.43;;;4.22;;
49860;SDS011;35761;48.826;9.238;2022-07-29T05:25:41;8.70;;;3.17;;
49860;SDS011;35761;48.826;9.238;2022-07-29T05:28:10;8.18;;;3.40;;
49860;SDS011;35761;48.826;9.238;2022-07-29T05:30:39;7.32;;;2.85;;
49860;SDS011;35761;48.826;9.238;2022-07-29T05:33:07;8.60;;;2.92;;
49860;SDS011;35761;48.826;9.238;2022-07-29T05:35:57;6.43;;;4.22;;
49860;SDS011;35761;48.826;9.238;2022-07-29T05:38:26;7.63;;;3.28;;
49860;SDS011;35761;48.826;9.238;2022-07-29T05:40:56;7.22;;;2.95;;
49860;SDS011;35761;48.826;9.238;2022-07-29T05:43:25;4.78;;;3.10;;
49860;SDS011;35761;48.826;9.238;2022-07-29T05:45:54;4.35;;;2.80;;
49860;SDS011;35761;48.826;9.238;2022-07-29T05:48:24;6.25;;;3.33;;
49860;SDS011;35761;48.826;9.238;2022-07-29T05:50:53;6.25;;;2.83;;
49860;SDS011;35761;48.826;9.238;2022-07-29T05:53:23;5.55;;;3.00;;
49860;SDS011;35761;48.826;9.238;2022-07-29T05:55:52;6.95;;;2.70;;
49860;SDS011;35761;48.826;9.238;2022-07-29T05:58:21;4.70;;;2.78;;
49860;SDS011;35761;48.826;9.238;2022-07-29T06:00:49;7.25;;;2.85;;
49860;SDS011;35761;48.826;9.238;2022-07-29T06:03:18;5.68;;;3.00;;
49860;SDS011;35761;48.826;9.238;2022-07-29T06:05:47;4.93;;;2.85;;
49860;SDS011;35761;48.826;9.238;2022-07-29T06:08:16;3.55;;;2.38;;
49860;SDS011;35761;48.826;9.238;2022-07-29T06:10:46;6.80;;;2.95;;
49860;SDS011;35761;48.826;9.238;2022-07-29T06:13:14;13.73;;;2.88;;
49860;SDS011;35761;48.826;9.238;2022-07-29T06:15:43;10.65;;;2.80;;
49860;SDS011;35761;48.826;9.238;2022-07-29T06:18:12;8.30;;;2.65;;
49860;SDS011;35761;48.826;9.238;2022-07-29T06:20:40;8.50;;;2.85;;
49860;SDS011;35761;48.826;9.238;2022-07-29T06:23:09;4.28;;;2.45;;
49860;SDS011;35761;48.826;9.238;2022-07-29T06:25:39;13.50;;;3.63;;
49860;SDS011;35761;48.826;9.238;2022-07-29T06:28:09;4.55;;;2.63;;
49860;SDS011;35761;48.826;9.238;2022-07-29T06:30:38;5.20;;;2.85;;
49860;SDS011;35761;48.826;9.238;2022-07-29T06:33:06;4.07;;;2.35;;
49860;SDS011;35761;48.826;9.238;2022-07-29T06:35:35;4.93;;;2.90;;
49860;SDS011;35761;48.826;9.238;2022-07-29T06:38:10;7.07;;;2.88;;
49860;SDS011;35761;48.826;9.238;2022-07-29T06:40:57;4.45;;;2.60;;
49860;SDS011;35761;48.826;9.238;2022-07-29T06:43:33;5.07;;;2.17;;
49860;SDS011;35761;48.826;9.238;2022-07-29T06:46:19;5.63;;;2.70;;
49860;SDS011;35761;48.826;9.238;2022-07-29T06:48:49;5.25;;;2.70;;
49860;SDS011;35761;48.826;9.238;2022-07-29T06:51:19;5.78;;;2.60;;
49860;SDS011;35761;48.826;9.238;2022-07-29T06:53:50;5.65;;;2.20;;
49860;SDS011;35761;48.826;9.238;2022-07-29T06:56:24;3.30;;;2.20;;
49860;SDS011;35761;48.826;9.238;2022-07-29T06:58:54;9.02;;;2.95;;
49860;SDS011;35761;48.826;9.238;2022-07-29T07:01:23;5.20;;;2.20;;
49860;SDS011;35761;48.826;9.238;2022-07-29T07:03:52;4.60;;;2.50;;
49860;SDS011;35761;48.826;9.238;2022-07-29T07:06:20;6.55;;;2.78;;
49860;SDS011;35761;48.826;9.238;2022-07-29T07:08:49;10.80;;;2.45;;
49860;SDS011;35761;48.826;9.238;2022-07-29T07:11:17;6.57;;;2.60;;
49860;SDS011;35761;48.826;9.238;2022-07-29T07:13:45;5.63;;;2.78;;
49860;SDS011;35761;48.826;9.238;2022-07-29T07:16:16;6.10;;;2.45;;
49860;SDS011;35761;48.826;9.238;2022-07-29T07:18:44;5.10;;;2.42;;
49860;SDS011;35761;48.826;9.238;2022-07-29T07:21:13;7.25;;;2.80;;
49860;SDS011;35761;48.826;9.238;2022-07-29T07:23:45;7.43;;;2.70;;
49860;SDS011;35761;48.826;9.238;2022-07-29T07:26:14;4.55;;;2.58;;
49860;SDS011;35761;48.826;9.238;2022-07-29T07:28:42;6.32;;;2.50;;
49860;SDS011;35761;48.826;9.238;2022-07-29T07:31:11;6.25;;;2.63;;
49860;SDS011;35761;48.826;9.238;2022-07-29T07:33:41;17.33;;;3.47;;
49860;SDS011;35761;48.826;9.238;2022-07-29T07:36:10;6.05;;;2.78;;
49860;SDS011;35761;48.826;9.238;2022-07-29T07:38:38;8.80;;;3.20;;
49860;SDS011;35761;48.826;9.238;2022-07-29T07:41:07;10.35;;;3.63;;
49860;SDS011;35761;48.826;9.238;2022-07-29T07:43:36;9.43;;;3.13;;
49860;SDS011;35761;48.826;9.238;2022-07-29T07:46:04;6.75;;;2.72;;
49860;SDS011;35761;48.826;9.238;2022-07-29T07:48:34;6.90;;;2.67;;
49860;SDS011;35761;48.826;9.238;2022-07-29T07:51:04;7.50;;;2.97;;
49860;SDS011;35761;48.826;9.238;2022-07-29T07:53:33;6.38;;;2.50;;
49860;SDS011;35761;48.826;9.238;2022-07-29T07:56:02;5.43;;;2.75;;
49860;SDS011;35761;48.826;9.238;2022-07-29T07:58:37;8.32;;;2.80;;
49860;SDS011;35761;48.826;9.238;2022-07-29T08:01:06;5.80;;;2.53;;
49860;SDS011;35761;48.826;9.238;2022-07-29T08:03:35;6.88;;;2.80;;
49860;SDS011;35761;48.826;9.238;2022-07-29T08:06:05;5.70;;;2.85;;
49860;SDS011;35761;48.826;9.238;2022-07-29T08:08:34;5.07;;;2.80;;
49860;SDS011;35761;48.826;9.238;2022-07-29T08:11:03;5.82;;;2.60;;
49860;SDS011;35761;48.826;9.238;2022-07-29T08:13:35;3.95;;;2.70;;
49860;SDS011;35761;48.826;9.238;2022-07-29T08:16:06;4.85;;;2.97;;
49860;SDS011;35761;48.826;9.238;2022-07-29T08:18:39;8.60;;;3.40;;
49860;SDS011;35761;48.826;9.238;2022-07-29T08:21:11;5.30;;;2.75;;
49860;SDS011;35761;48.826;9.238;2022-07-29T08:23:41;7.22;;;3.13;;
49860;SDS011;35761;48.826;9.238;2022-07-29T08:26:26;7.80;;;3.03;;
49860;SDS011;35761;48.826;9.238;2022-07-29T08:28:55;6.68;;;3.35;;
49860;SDS011;35761;48.826;9.238;2022-07-29T08:31:23;7.22;;;2.83;;
49860;SDS011;35761;48.826;9.238;2022-07-29T08:33:52;5.53;;;2.65;;
49860;SDS011;35761;48.826;9.238;2022-07-29T08:36:23;12.60;;;3.10;;
49860;SDS011;35761;48.826;9.238;2022-07-29T08:38:52;5.18;;;3.10;;
49860;SDS011;35761;48.826;9.238;2022-07-29T08:41:21;5.30;;;2.80;;
49860;SDS011;35761;48.826;9.238;2022-07-29T08:43:50;6.55;;;2.80;;
49860;SDS011;35761;48.826;9.238;2022-07-29T08:46:20;7.00;;;3.13;;
49860;SDS011;35761;48.826;9.238;2022-07-29T08:48:49;7.80;;;3.00;;
49860;SDS011;35761;48.826;9.238;2022-07-29T08:51:18;7.03;;;2.88;;
49860;SDS011;35761;48.826;9.238;2022-07-29T08:53:49;11.20;;;3.00;;
49860;SDS011;35761;48.826;9.238;2022-07-29T08:56:18;5.82;;;3.00;;
49860;SDS011;35761;48.826;9.238;2022-07-29T08:58:48;7.05;;;2.85;;
49860;SDS011;35761;48.826;9.238;2022-07-29T09:01:21;6.65;;;3.17;;
49860;SDS011;35761;48.826;9.238;2022-07-29T09:04:10;4.82;;;3.00;;
49860;SDS011;35761;48.826;9.238;2022-07-29T09:06:41;9.63;;;2.97;;
49860;SDS011;35761;48.826;9.238;2022-07-29T09:09:14;10.20;;;3.05;;
49860;SDS011;35761;48.826;9.238;2022-07-29T09:11:43;8.20;;;2.97;;
49860;SDS011;35761;48.826;9.238;2022-07-29T09:14:12;9.73;;;3.53;;
49860;SDS011;35761;48.826;9.238;2022-07-29T09:16:45;10.32;;;4.40;;
49860;SDS011;35761;48.826;9.238;2022-07-29T09:19:25;8.07;;;3.30;;
49860;SDS011;35761;48.826;9.238;2022-07-29T09:21:56;10.45;;;3.40;;
49860;SDS011;35761;48.826;9.238;2022-07-29T09:24:40;11.75;;;3.63;;
49860;SDS011;35761;48.826;9.238;2022-07-29T09:27:17;9.95;;;3.80;;
49860;SDS011;35761;48.826;9.238;2022-07-29T09:29:58;10.90;;;3.85;;
49860;SDS011;35761;48.826;9.238;2022-07-29T09:32:29;5.88;;;3.20;;
49860;SDS011;35761;48.826;9.238;2022-07-29T09:35:16;6.50;;;3.03;;
49860;SDS011;35761;48.826;9.238;2022-07-29T09:37:47;6.40;;;3.15;;
49860;SDS011;35761;48.826;9.238;2022-07-29T09:40:18;8.07;;;3.92;;
49860;SDS011;35761;48.826;9.238;2022-07-29T09:42:49;8.50;;;3.15;;
49860;SDS011;35761;48.826;9.238;2022-07-29T09:45:26;10.15;;;3.30;;
49860;SDS011;35761;48.826;9.238;2022-07-29T09:47:57;9.43;;;2.97;;
49860;SDS011;35761;48.826;9.238;2022-07-29T09:50:36;9.10;;;3.58;;
49860;SDS011;35761;48.826;9.238;2022-07-29T09:53:06;8.75;;;3.17;;
49860;SDS011;35761;48.826;9.238;2022-07-29T09:55:48;10.02;;;3.38;;
49860;SDS011;35761;48.826;9.238;2022-07-29T09:58:17;7.65;;;3.50;;
49860;SDS011;35761;48.826;9.238;2022-07-29T10:00:48;10.23;;;3.20;;
49860;SDS011;35761;48.826;9.238;2022-07-29T10:03:18;11.02;;;3.10;;
49860;SDS011;35761;48.826;9.238;2022-07-29T10:06:03;12.45;;;3.15;;
49860;SDS011;35761;48.826;9.238;2022-07-29T10:08:33;7.32;;;3.17;;
49860;SDS011;35761;48.826;9.238;2022-07-29T10:11:13;11.60;;;3.40;;
49860;SDS011;35761;48.826;9.238;2022-07-29T10:13:44;10.40;;;3.05;;
49860;SDS011;35761;48.826;9.238;2022-07-29T10:16:15;11.30;;;3.58;;
49860;SDS011;35761;48.826;9.238;2022-07-29T10:18:44;5.60;;;3.40;;
49860;SDS011;35761;48.826;9.238;2022-07-29T10:21:14;9.93;;;2.88;;
49860;SDS011;35761;48.826;9.238;2022-07-29T10:24:02;9.15;;;3.40;;
49860;SDS011;35761;48.826;9.238;2022-07-29T10:26:42;8.90;;;3.60;;
49860;SDS011;35761;48.826;9.238;2022-07-29T10:29:12;7.97;;;3.22;;
49860;SDS011;35761;48.826;9.238;2022-07-29T10:31:42;6.70;;;3.40;;
49860;SDS011;35761;48.826;9.238;2022-07-29T10:34:20;11.05;;;3.72;;
49860;SDS011;35761;48.826;9.238;2022-07-29T10:37:01;12.40;;;3.53;;
49860;SDS011;35761;48.826;9.238;2022-07-29T10:39:40;11.98;;;4.00;;
49860;SDS011;35761;48.826;9.238;2022-07-29T10:42:24;9.35;;;3.50;;
49860;SDS011;35761;48.826;9.238;2022-07-29T10:45:00;7.63;;;3.58;;
49860;SDS011;35761;48.826;9.238;2022-07-29T10:47:32;8.50;;;3.75;;
49860;SDS011;35761;48.826;9.238;2022-07-29T10:50:02;6.97;;;3.30;;
49860;SDS011;35761;48.826;9.238;2022-07-29T10:52:51;12.20;;;3.90;;
49860;SDS011;35761;48.826;9.238;2022-07-29T10:58:15;6.65;;;4.03;;
49860;SDS011;35761;48.826;9.238;2022-07-29T11:00:47;13.43;;;3.65;;
49860;SDS011;35761;48.826;9.238;2022-07-29T11:06:16;10.73;;;3.92;;
49860;SDS011;35761;48.826;9.238;2022-07-29T11:11:51;15.32;;;4.55;;
49860;SDS011;35761;48.826;9.238;2022-07-29T11:14:31;9.82;;;3.97;;
49860;SDS011;35761;48.826;9.238;2022-07-29T11:17:24;10.43;;;3.90;;
49860;SDS011;35761;48.826;9.238;2022-07-29T11:23:17;10.70;;;3.50;;
49860;SDS011;35761;48.826;9.238;2022-07-29T11:28:52;15.32;;;5.28;;
49860;SDS011;35761;48.826;9.238;2022-07-29T11:31:38;8.20;;;3.88;;
49860;SDS011;35761;48.826;9.238;2022-07-29T11:34:16;13.15;;;5.10;;
49860;SDS011;35761;48.826;9.238;2022-07-29T11:42:47;11.90;;;5.22;;
49860;SDS011;35761;48.826;9.238;2022-07-29T11:45:21;25.90;;;5.03;;
49860;SDS011;35761;48.826;9.238;2022-07-29T11:48:16;14.00;;;4.38;;
49860;SDS011;35761;48.826;9.238;2022-07-29T11:50:58;10.98;;;4.50;;
49860;SDS011;35761;48.826;9.238;2022-07-29T11:53:28;14.50;;;4.30;;
49860;SDS011;35761;48.826;9.238;2022-07-29T11:55:58;10.48;;;3.30;;
49860;SDS011;35761;48.826;9.238;2022-07-29T11:58:29;6.47;;;3.10;;
49860;SDS011;35761;48.826;9.238;2022-07-29T12:00:59;13.52;;;3.40;;
49860;SDS011;35761;48.826;9.238;2022-07-29T12:03:32;6.18;;;3.47;;
49860;SDS011;35761;48.826;9.238;2022-07-29T12:06:03;8.23;;;3.08;;
49860;SDS011;35761;48.826;9.238;2022-07-29T12:08:41;7.70;;;3.10;;
49860;SDS011;35761;48.826;9.238;2022-07-29T12:11:17;9.05;;;3.80;;
49860;SDS011;35761;48.826;9.238;2022-07-29T12:13:48;8.50;;;3.40;;
49860;SDS011;35761;48.826;9.238;2022-07-29T12:16:18;5.57;;;2.85;;
49860;SDS011;35761;48.826;9.238;2022-07-29T12:18:57;5.38;;;2.85;;
49860;SDS011;35761;48.826;9.238;2022-07-29T12:21:27;5.68;;;2.60;;
49860;SDS011;35761;48.826;9.238;2022-07-29T12:23:57;7.32;;;2.20;;
49860;SDS011;35761;48.826;9.238;2022-07-29T12:26:35;4.97;;;2.10;;
49860;SDS011;35761;48.826;9.238;2022-07-29T12:29:06;8.13;;;2.45;;
49860;SDS011;35761;48.826;9.238;2022-07-29T12:31:41;7.60;;;1.90;;
49860;SDS011;35761;48.826;9.238;2022-07-29T12:34:26;4.28;;;2.03;;
49860;SDS011;35761;48.826;9.238;2022-07-29T12:36:56;3.55;;;2.17;;
49860;SDS011;35761;48.826;9.238;2022-07-29T12:39:25;3.35;;;1.98;;
49860;SDS011;35761;48.826;9.238;2022-07-29T12:41:54;8.15;;;2.38;;
49860;SDS011;35761;48.826;9.238;2022-07-29T12:44:43;5.13;;;2.53;;
49860;SDS011;35761;48.826;9.238;2022-07-29T12:47:13;5.72;;;2.42;;
49860;SDS011;35761;48.826;9.238;2022-07-29T12:49:43;5.72;;;2.90;;
49860;SDS011;35761;48.826;9.238;2022-07-29T12:52:27;3.60;;;2.10;;
49860;SDS011;35761;48.826;9.238;2022-07-29T12:54:59;8.00;;;2.40;;
49860;SDS011;35761;48.826;9.238;2022-07-29T12:57:28;8.25;;;3.15;;
49860;SDS011;35761;48.826;9.238;2022-07-29T13:00:05;6.15;;;2.38;;
49860;SDS011;35761;48.826;9.238;2022-07-29T13:02:37;6.55;;;2.75;;
49860;SDS011;35761;48.826;9.238;2022-07-29T13:05:09;11.00;;;2.65;;
49860;SDS011;35761;48.826;9.238;2022-07-29T13:07:39;6.38;;;2.95;;
49860;SDS011;35761;48.826;9.238;2022-07-29T13:10:28;6.82;;;2.60;;
49860;SDS011;35761;48.826;9.238;2022-07-29T13:13:03;7.00;;;2.67;;
49860;SDS011;35761;48.826;9.238;2022-07-29T13:15:35;6.40;;;2.63;;
49860;SDS011;35761;48.826;9.238;2022-07-29T13:18:04;8.30;;;2.50;;
49860;SDS011;35761;48.826;9.238;2022-07-29T13:20:55;6.28;;;2.60;;
49860;SDS011;35761;48.826;9.238;2022-07-29T13:23:24;5.65;;;2.80;;
49860;SDS011;35761;48.826;9.238;2022-07-29T13:25:52;8.40;;;2.70;;
49860;SDS011;35761;48.826;9.238;2022-07-29T13:28:21;5.05;;;2.60;;
49860;SDS011;35761;48.826;9.238;2022-07-29T13:30:50;6.65;;;2.88;;
49860;SDS011;35761;48.826;9.238;2022-07-29T13:33:18;7.25;;;3.03;;
49860;SDS011;35761;48.826;9.238;2022-07-29T13:35:48;5.50;;;2.90;;
49860;SDS011;35761;48.826;9.238;2022-07-29T13:38:17;9.43;;;4.22;;
49860;SDS011;35761;48.826;9.238;2022-07-29T13:40:45;5.03;;;3.00;;
49860;SDS011;35761;48.826;9.238;2022-07-29T13:43:14;9.60;;;3.15;;
49860;SDS011;35761;48.826;9.238;2022-07-29T13:45:42;6.53;;;3.22;;
49860;SDS011;35761;48.826;9.238;2022-07-29T13:48:11;6.53;;;3.50;;
49860;SDS011;35761;48.826;9.238;2022-07-29T13:50:40;7.95;;;3.05;;
49860;SDS011;35761;48.826;9.238;2022-07-29T13:53:09;7.25;;;3.05;;
49860;SDS011;35761;48.826;9.238;2022-07-29T13:55:43;5.80;;;3.22;;
49860;SDS011;35761;48.826;9.238;2022-07-29T13:58:13;9.63;;;3.40;;
49860;SDS011;35761;48.826;9.238;2022-07-29T14:00:42;8.65;;;4.30;;
49860;SDS011;35761;48.826;9.238;2022-07-29T14:03:10;7.45;;;3.95;;
49860;SDS011;35761;48.826;9.238;2022-07-29T14:05:39;7.43;;;3.97;;
49860;SDS011;35761;48.826;9.238;2022-07-29T14:08:08;6.90;;;3.42;;
49860;SDS011;35761;48.826;9.238;2022-07-29T14:10:38;10.55;;;3.47;;
49860;SDS011;35761;48.826;9.238;2022-07-29T14:13:07;5.95;;;3.63;;
49860;SDS011;35761;48.826;9.238;2022-07-29T14:15:50;8.57;;;3.40;;
49860;SDS011;35761;48.826;9.238;2022-07-29T14:18:19;11.05;;;3.60;;
49860;SDS011;35761;48.826;9.238;2022-07-29T14:20:48;8.43;;;3.80;;
49860;SDS011;35761;48.826;9.238;2022-07-29T14:23:19;9.18;;;4.30;;
49860;SDS011;35761;48.826;9.238;2022-07-29T14:25:47;7.80;;;3.88;;
49860;SDS011;35761;48.826;9.238;2022-07-29T14:28:16;9.05;;;3.60;;
49860;SDS011;35761;48.826;9.238;2022-07-29T14:30:45;7.97;;;4.63;;
49860;SDS011;35761;48.826;9.238;2022-07-29T14:33:14;8.98;;;4.40;;
49860;SDS011;35761;48.826;9.238;2022-07-29T14:35:43;9.35;;;4.10;;
49860;SDS011;35761;48.826;9.238;2022-07-29T14:38:12;6.88;;;4.65;;
49860;SDS011;35761;48.826;9.238;2022-07-29T14:40:42;11.07;;;5.20;;
49860;SDS011;35761;48.826;9.238;2022-07-29T14:43:16;11.60;;;5.53;;
49860;SDS011;35761;48.826;9.238;2022-07-29T14:45:47;14.05;;;5.65;;
49860;SDS011;35761;48.826;9.238;2022-07-29T14:48:16;10.15;;;5.35;;
49860;SDS011;35761;48.826;9.238;2022-07-29T14:50:44;9.40;;;5.65;;
49860;SDS011;35761;48.826;9.238;2022-07-29T14:53:13;11.07;;;6.10;;
49860;SDS011;35761;48.826;9.238;2022-07-29T14:55:43;9.95;;;5.95;;
49860;SDS011;35761;48.826;9.238;2022-07-29T14:58:12;9.95;;;5.22;;
49860;SDS011;35761;48.826;9.238;2022-07-29T15:00:42;11.02;;;6.05;;
49860;SDS011;35761;48.826;9.238;2022-07-29T15:03:10;14.02;;;5.68;;
49860;SDS011;35761;48.826;9.238;2022-07-29T15:05:49;9.77;;;4.50;;
49860;SDS011;35761;48.826;9.238;2022-07-29T15:08:18;9.82;;;4.78;;
49860;SDS011;35761;48.826;9.238;2022-07-29T15:10:48;7.00;;;4.50;;
49860;SDS011;35761;48.826;9.238;2022-07-29T15:13:17;10.85;;;4.68;;
49860;SDS011;35761;48.826;9.238;2022-07-29T15:15:45;9.13;;;5.10;;
49860;SDS011;35761;48.826;9.238;2022-07-29T15:18:14;9.00;;;4.88;;
49860;SDS011;35761;48.826;9.238;2022-07-29T15:20:51;10.60;;;4.90;;
49860;SDS011;35761;48.826;9.238;2022-07-29T15:23:19;10.02;;;4.57;;
49860;SDS011;35761;48.826;9.238;2022-07-29T15:25:49;14.20;;;5.15;;
49860;SDS011;35761;48.826;9.238;2022-07-29T15:28:18;8.45;;;4.78;;
49860;SDS011;35761;48.826;9.238;2022-07-29T15:30:47;11.68;;;5.50;;
49860;SDS011;35761;48.826;9.238;2022-07-29T15:33:16;14.23;;;5.00;;
49860;SDS011;35761;48.826;9.238;2022-07-29T15:35:44;8.25;;;4.20;;